createdAt,value
2022-12-23T00:00:15.981Z,12.40
2022-12-23T00:02:44.231Z,13.93
2022-12-23T00:05:12.439Z,11.63
2022-12-23T00:07:40.377Z,17.10
2022-12-23T00:10:09.481Z,12.27
2022-12-23T00:12:54.666Z,14.37
2022-12-23T00:15:23.971Z,10.23
2022-12-23T00:17:51.923Z,10.17
2022-12-23T00:20:20.286Z,12.17
2022-12-23T00:23:06.757Z,11.33
2022-12-23T00:25:45.049Z,11.53
2022-12-23T00:28:15.526Z,15.13
2022-12-23T00:30:50.096Z,16.00
2022-12-23T00:33:20.880Z,12.50
2022-12-23T00:35:49.338Z,12.93
2022-12-23T00:38:17.641Z,12.97
2022-12-23T00:41:03.372Z,14.93
2022-12-23T00:43:31.344Z,12.50
2022-12-23T00:46:00.771Z,14.97
2022-12-23T00:48:46.233Z,17.80
2022-12-23T00:51:14.113Z,17.80
2022-12-23T00:53:42.064Z,13.80
2022-12-23T00:56:10.099Z,11.27
2022-12-23T00:58:38.097Z,14.43
2022-12-23T01:01:25.085Z,12.43
2022-12-23T01:04:10.375Z,15.90
2022-12-23T01:06:38.353Z,15.50
2022-12-23T01:09:06.341Z,13.63
2022-12-23T01:11:34.387Z,21.13
2022-12-23T01:14:02.371Z,14.30
2022-12-23T01:16:31.801Z,15.73
2022-12-23T01:19:00.231Z,11.73
2022-12-23T01:21:28.218Z,10.60
2022-12-23T01:23:56.491Z,11.33
2022-12-23T01:26:24.509Z,11.83
2022-12-23T01:28:54.952Z,10.17
2022-12-23T01:31:23.438Z,10.87
2022-12-23T01:33:53.382Z,12.30
2022-12-23T01:36:21.846Z,14.27
2022-12-23T01:38:50.231Z,9.77
2022-12-23T01:41:39.658Z,8.60
2022-12-23T01:44:40.750Z,10.37
2022-12-23T01:47:14.250Z,9.87
2022-12-23T01:49:44.168Z,12.00
2022-12-23T01:52:13.054Z,10.70
2022-12-23T01:54:41.613Z,13.20
2022-12-23T01:57:09.577Z,11.07
2022-12-23T01:59:54.840Z,12.87
2022-12-23T02:02:41.084Z,9.83
2022-12-23T02:05:10.936Z,11.50
2022-12-23T02:07:56.711Z,8.87
2022-12-23T02:10:32.400Z,11.00
2022-12-23T02:13:07.907Z,13.27
2022-12-23T02:16:00.396Z,14.63
2022-12-23T02:18:56.747Z,12.40
2022-12-23T02:22:12.381Z,11.27
2022-12-23T02:25:11.334Z,12.77
2022-12-23T02:27:52.931Z,11.73
2022-12-23T02:30:27.691Z,14.70
2022-12-23T02:33:08.055Z,12.20
2022-12-23T02:35:45.159Z,12.17
2022-12-23T02:38:17.664Z,10.53
2022-12-23T02:40:55.519Z,12.07
2022-12-23T02:43:31.026Z,12.07
2022-12-23T02:46:06.197Z,14.10
2022-12-23T02:48:38.881Z,12.30
2022-12-23T02:51:08.701Z,13.47
2022-12-23T02:53:40.667Z,13.53
2022-12-23T02:56:11.507Z,15.27
2022-12-23T02:58:45.444Z,12.13
2022-12-23T03:01:17.304Z,13.40
2022-12-23T03:03:48.576Z,14.80
2022-12-23T03:06:22.134Z,13.50
2022-12-23T03:08:53.407Z,11.57
2022-12-23T03:11:21.768Z,16.60
2022-12-23T03:14:16.185Z,14.00
2022-12-23T03:16:55.083Z,16.17
2022-12-23T03:19:32.676Z,16.40
2022-12-23T03:22:10.226Z,14.40
2022-12-23T03:24:45.900Z,13.50
2022-12-23T03:27:19.915Z,15.00
2022-12-23T03:29:55.944Z,11.90
2022-12-23T03:32:27.430Z,15.10
2022-12-23T03:34:58.793Z,15.13
2022-12-23T03:37:29.835Z,14.83
2022-12-23T03:40:04.118Z,15.20
2022-12-23T03:42:36.996Z,12.87
2022-12-23T03:45:37.683Z,15.07
2022-12-23T03:48:03.875Z,16.73
2022-12-23T03:50:35.071Z,13.40
2022-12-23T03:53:08.619Z,16.67
2022-12-23T03:55:39.756Z,15.80
2022-12-23T03:58:13.502Z,14.83
2022-12-23T04:00:47.397Z,13.03
2022-12-23T04:03:21.810Z,17.00
2022-12-23T04:05:54.680Z,14.90
2022-12-23T04:08:27.460Z,14.53
2022-12-23T04:10:55.972Z,15.43
2022-12-23T04:13:24.025Z,15.23
2022-12-23T04:15:52.009Z,16.13
2022-12-23T04:18:21.464Z,18.03
2022-12-23T04:20:49.374Z,17.43
2022-12-23T04:23:17.281Z,13.07
2022-12-23T04:25:45.271Z,15.73
2022-12-23T04:28:13.340Z,14.53
2022-12-23T04:30:41.333Z,15.27
2022-12-23T04:33:11.621Z,16.10
2022-12-23T04:35:40.897Z,15.50
2022-12-23T04:38:09.007Z,13.50
2022-12-23T04:40:36.896Z,16.87
2022-12-23T04:43:04.984Z,14.77
2022-12-23T04:45:34.112Z,15.43
2022-12-23T04:48:02.405Z,13.37
2022-12-23T04:50:30.500Z,14.13
2022-12-23T04:52:59.927Z,15.83
2022-12-23T04:55:28.051Z,17.10
2022-12-23T04:57:55.979Z,16.17
2022-12-23T05:00:24.116Z,15.73
2022-12-23T05:02:52.103Z,17.07
2022-12-23T05:05:20.164Z,17.27
2022-12-23T05:07:50.948Z,14.27
2022-12-23T05:10:20.350Z,10.47
2022-12-23T05:12:48.329Z,14.40
2022-12-23T05:15:16.325Z,12.93
2022-12-23T05:17:44.236Z,14.07
2022-12-23T05:20:12.705Z,15.70
2022-12-23T05:22:40.747Z,12.83
2022-12-23T05:25:09.935Z,13.30
2022-12-23T05:27:39.384Z,13.97
2022-12-23T05:30:08.916Z,14.03
2022-12-23T05:32:37.084Z,16.23
2022-12-23T05:35:05.300Z,14.07
2022-12-23T05:37:33.293Z,13.00
2022-12-23T05:40:01.383Z,13.27
2022-12-23T05:42:29.547Z,11.57
2022-12-23T05:44:59.499Z,11.50
2022-12-23T05:47:27.491Z,11.27
2022-12-23T05:49:55.403Z,14.63
2022-12-23T05:52:23.370Z,13.60
2022-12-23T05:54:51.382Z,11.30
2022-12-23T05:57:19.488Z,13.10
2022-12-23T05:59:47.372Z,11.37
2022-12-23T06:02:16.968Z,13.53
2022-12-23T06:04:45.123Z,13.10
2022-12-23T06:07:13.014Z,15.77
2022-12-23T06:09:41.005Z,15.27
2022-12-23T06:12:09.262Z,13.53
2022-12-23T06:14:37.212Z,14.97
2022-12-23T06:17:05.253Z,15.17
2022-12-23T06:19:34.598Z,13.23
2022-12-23T06:22:02.517Z,11.97
2022-12-23T06:24:30.509Z,17.60
2022-12-23T06:26:58.437Z,14.77
2022-12-23T06:29:26.370Z,15.13
2022-12-23T06:31:54.485Z,20.80
2022-12-23T06:34:22.400Z,16.17
2022-12-23T06:36:51.901Z,19.40
2022-12-23T06:39:20.093Z,19.47
2022-12-23T06:41:47.968Z,19.60
2022-12-23T06:44:16.102Z,18.27
2022-12-23T06:46:44.009Z,15.50
2022-12-23T06:49:13.769Z,19.83
2022-12-23T06:51:42.329Z,15.30
2022-12-23T06:54:12.792Z,17.60
2022-12-23T06:56:41.014Z,19.03
2022-12-23T06:59:09.044Z,15.70
2022-12-23T07:01:36.986Z,18.13
2022-12-23T07:04:05.104Z,16.67
2022-12-23T07:06:32.995Z,18.70
2022-12-23T07:09:01.144Z,19.37
2022-12-23T07:11:30.524Z,14.93
2022-12-23T07:13:59.535Z,18.63
2022-12-23T07:16:27.774Z,15.17
2022-12-23T07:18:55.673Z,18.03
2022-12-23T07:21:29.004Z,17.00
2022-12-23T07:23:58.141Z,15.43
2022-12-23T07:26:26.018Z,17.07
2022-12-23T07:28:55.433Z,19.40
2022-12-23T07:31:23.498Z,18.43
2022-12-23T07:33:51.489Z,18.13
2022-12-23T07:36:19.434Z,19.73
2022-12-23T07:38:50.437Z,16.27
2022-12-23T07:41:18.557Z,19.73
2022-12-23T07:43:46.836Z,19.33
2022-12-23T07:46:16.281Z,17.57
2022-12-23T07:48:44.351Z,19.27
2022-12-23T07:51:12.298Z,17.03
2022-12-23T07:53:40.355Z,19.83
2022-12-23T07:56:08.883Z,18.83
2022-12-23T07:58:36.955Z,17.07
2022-12-23T08:01:08.190Z,18.87
2022-12-23T08:03:38.553Z,16.87
2022-12-23T08:06:08.258Z,15.47
2022-12-23T08:08:36.899Z,20.60
2022-12-23T08:11:06.687Z,14.17
2022-12-23T08:13:37.078Z,15.27
2022-12-23T08:16:07.397Z,13.97
2022-12-23T08:18:38.797Z,15.07
2022-12-23T08:21:08.771Z,15.30
2022-12-23T08:23:36.706Z,14.70
2022-12-23T08:26:07.014Z,16.43
2022-12-23T08:28:36.055Z,15.43
2022-12-23T08:31:06.979Z,13.43
2022-12-23T08:33:36.431Z,15.67
2022-12-23T08:36:07.667Z,15.33
2022-12-23T08:38:36.105Z,14.73
2022-12-23T08:41:09.512Z,16.77
2022-12-23T08:43:37.387Z,17.83
2022-12-23T08:46:06.429Z,18.63
2022-12-23T08:48:35.107Z,16.00
2022-12-23T08:51:07.055Z,18.90
2022-12-23T08:53:36.765Z,14.87
2022-12-23T08:56:06.888Z,15.07
2022-12-23T08:58:38.237Z,17.63
2022-12-23T09:01:07.424Z,18.23
2022-12-23T09:03:35.671Z,20.57
2022-12-23T09:06:07.550Z,20.77
2022-12-23T09:08:36.252Z,18.73
2022-12-23T09:11:04.333Z,18.67
2022-12-23T09:13:35.693Z,22.03
2022-12-23T09:16:04.315Z,19.47
2022-12-23T09:18:32.819Z,20.43
2022-12-23T09:21:01.541Z,18.10
2022-12-23T09:23:31.265Z,22.20
2022-12-23T09:25:59.894Z,22.20
2022-12-23T09:28:28.294Z,20.40
2022-12-23T09:30:56.265Z,18.23
2022-12-23T09:33:24.242Z,20.27
2022-12-23T09:35:52.106Z,24.80
2022-12-23T09:38:20.077Z,18.37
2022-12-23T09:40:49.710Z,18.20
2022-12-23T09:43:30.200Z,15.50
2022-12-23T09:46:08.279Z,16.13
2022-12-23T09:48:42.910Z,15.90
2022-12-23T09:51:15.694Z,15.80
2022-12-23T09:53:54.475Z,14.40
2022-12-23T09:56:34.692Z,14.50
2022-12-23T09:59:15.062Z,17.20
2022-12-23T10:01:53.954Z,20.73
2022-12-23T10:04:39.323Z,15.47
2022-12-23T10:07:23.818Z,14.13
2022-12-23T10:09:59.157Z,17.83
2022-12-23T10:12:40.045Z,15.03
2022-12-23T10:15:22.672Z,13.33
2022-12-23T10:17:55.865Z,16.67
2022-12-23T10:20:35.226Z,13.60
2022-12-23T10:23:03.781Z,14.13
2022-12-23T10:25:37.078Z,17.47
2022-12-23T10:28:07.324Z,15.07
2022-12-23T10:31:05.920Z,15.50
2022-12-23T10:33:37.708Z,14.77
2022-12-23T10:36:11.131Z,16.67
2022-12-23T10:38:52.501Z,13.07
2022-12-23T10:41:31.885Z,17.80
2022-12-23T10:44:20.645Z,18.37
2022-12-23T10:47:00.318Z,18.00
2022-12-23T10:49:37.567Z,13.20
2022-12-23T10:52:12.813Z,14.97
2022-12-23T10:54:45.268Z,14.47
2022-12-23T10:57:15.672Z,14.53
2022-12-23T10:59:46.077Z,14.03
2022-12-23T11:02:41.585Z,16.40
2022-12-23T11:05:16.824Z,12.90
2022-12-23T11:07:47.261Z,15.00
2022-12-23T11:10:19.898Z,15.80
2022-12-23T11:12:49.863Z,14.57
2022-12-23T11:15:32.930Z,13.33
2022-12-23T11:18:03.993Z,14.00
2022-12-23T11:20:32.909Z,14.57
2022-12-23T11:23:03.701Z,12.40
2022-12-23T11:25:36.873Z,12.93
2022-12-23T11:28:12.464Z,11.33
2022-12-23T11:30:56.462Z,12.43
2022-12-23T11:33:28.199Z,19.73
2022-12-23T11:36:06.365Z,13.10
2022-12-23T11:38:36.470Z,11.73
2022-12-23T11:41:06.276Z,10.60
2022-12-23T11:43:35.011Z,12.17
2022-12-23T11:46:20.228Z,8.53
2022-12-23T11:48:54.377Z,9.67
2022-12-23T11:51:27.160Z,9.43
2022-12-23T11:54:01.403Z,10.23
2022-12-23T11:56:30.422Z,10.80
2022-12-23T11:59:04.823Z,10.03
2022-12-23T12:01:34.354Z,9.87
2022-12-23T12:04:04.811Z,9.97
2022-12-23T12:06:33.851Z,9.30
2022-12-23T12:09:05.437Z,10.00
2022-12-23T12:11:39.863Z,11.53
2022-12-23T12:14:09.802Z,8.93
2022-12-23T12:16:53.060Z,8.30
2022-12-23T12:19:25.549Z,8.30
2022-12-23T12:21:57.577Z,10.23
2022-12-23T12:24:30.170Z,6.47
2022-12-23T12:27:02.419Z,9.73
2022-12-23T12:29:38.428Z,9.33
2022-12-23T12:32:16.850Z,9.03
2022-12-23T12:34:53.104Z,9.50
2022-12-23T12:37:31.311Z,8.13
2022-12-23T12:40:03.620Z,8.93
2022-12-23T12:42:39.026Z,9.67
2022-12-23T12:45:17.942Z,9.10
2022-12-23T12:48:00.220Z,10.53
2022-12-23T12:50:40.728Z,6.57
2022-12-23T12:53:17.162Z,10.27
2022-12-23T12:55:52.810Z,10.80
2022-12-23T12:58:24.055Z,9.00
2022-12-23T13:01:04.542Z,13.77
2022-12-23T13:03:56.805Z,11.87
2022-12-23T13:06:37.004Z,10.63
2022-12-23T13:09:16.742Z,8.53
2022-12-23T13:11:51.605Z,9.10
2022-12-23T13:14:39.781Z,10.40
2022-12-23T13:17:15.222Z,7.40
2022-12-23T13:19:51.887Z,7.10
2022-12-23T13:22:26.082Z,10.83
2022-12-23T13:25:00.311Z,10.27
2022-12-23T13:27:32.810Z,7.63
2022-12-23T13:30:07.803Z,7.67
2022-12-23T13:33:05.190Z,6.57
2022-12-23T13:35:41.667Z,5.43
2022-12-23T13:38:26.728Z,5.43
2022-12-23T13:41:03.247Z,7.20
2022-12-23T13:43:41.803Z,7.93
2022-12-23T13:46:19.277Z,7.10
2022-12-23T13:48:54.615Z,8.00
2022-12-23T13:51:31.937Z,11.30
2022-12-23T13:54:08.684Z,8.33
2022-12-23T13:56:43.157Z,4.47
2022-12-23T13:59:12.510Z,3.73
2022-12-23T14:01:46.548Z,4.33
2022-12-23T14:04:31.785Z,4.30
2022-12-23T14:07:04.139Z,5.50
2022-12-23T14:09:35.829Z,4.60
2022-12-23T14:12:17.304Z,3.30
2022-12-23T14:15:01.057Z,4.20
2022-12-23T14:17:36.588Z,4.13
2022-12-23T14:20:20.354Z,4.23
2022-12-23T14:23:02.545Z,4.03
2022-12-23T14:25:52.922Z,3.30
2022-12-23T14:28:41.579Z,6.20
2022-12-23T14:31:30.427Z,4.77
2022-12-23T14:34:05.930Z,7.13
2022-12-23T14:36:34.429Z,3.23
2022-12-23T14:39:33.533Z,3.47
2022-12-23T14:42:06.811Z,4.17
2022-12-23T14:44:49.888Z,3.50
2022-12-23T14:47:31.783Z,3.53
2022-12-23T14:50:40.454Z,2.20
2022-12-23T14:53:23.721Z,2.93
2022-12-23T14:56:11.761Z,2.30
2022-12-23T14:59:11.997Z,5.80
2022-12-23T15:01:43.150Z,2.57
2022-12-23T15:04:19.492Z,2.30
2022-12-23T15:06:50.599Z,4.27
2022-12-23T15:09:24.667Z,3.37
2022-12-23T15:11:55.686Z,6.50
2022-12-23T15:14:32.841Z,3.90
2022-12-23T15:17:00.894Z,4.17
2022-12-23T15:19:38.303Z,3.10
2022-12-23T15:22:19.934Z,2.80
2022-12-23T15:24:50.737Z,3.00
2022-12-23T15:27:30.230Z,3.13
2022-12-23T15:29:58.801Z,3.10
2022-12-23T15:32:40.213Z,2.70
2022-12-23T15:35:09.265Z,3.07
2022-12-23T15:37:37.242Z,3.53
2022-12-23T15:40:12.720Z,4.40
2022-12-23T15:42:48.549Z,3.77
2022-12-23T15:45:31.989Z,3.43
2022-12-23T15:48:00.127Z,5.77
2022-12-23T15:50:28.790Z,6.07
2022-12-23T15:53:03.119Z,5.53
2022-12-23T15:55:33.805Z,7.77
2022-12-23T15:58:05.339Z,5.77
2022-12-23T16:00:39.843Z,7.93
2022-12-23T16:03:22.844Z,5.47
2022-12-23T16:05:50.983Z,7.57
2022-12-23T16:08:29.564Z,6.43
2022-12-23T16:11:05.517Z,7.60
2022-12-23T16:13:35.046Z,7.07
2022-12-23T16:16:19.496Z,6.03
2022-12-23T16:18:48.139Z,6.93
2022-12-23T16:21:16.551Z,6.43
2022-12-23T16:23:51.814Z,6.37
2022-12-23T16:26:20.353Z,7.47
2022-12-23T16:28:52.431Z,9.37
2022-12-23T16:31:21.552Z,9.57
2022-12-23T16:33:52.471Z,9.20
2022-12-23T16:36:23.656Z,6.73
2022-12-23T16:38:53.465Z,6.97
2022-12-23T16:41:21.678Z,6.30
2022-12-23T16:43:52.817Z,5.13
2022-12-23T16:46:23.190Z,5.77
2022-12-23T16:48:53.526Z,4.20
2022-12-23T16:51:24.541Z,3.10
2022-12-23T16:53:55.177Z,3.90
2022-12-23T16:56:25.731Z,4.03
2022-12-23T16:58:55.578Z,4.23
2022-12-23T17:01:25.619Z,5.17
2022-12-23T17:03:54.095Z,3.43
2022-12-23T17:06:22.773Z,3.77
2022-12-23T17:08:51.277Z,3.77
2022-12-23T17:11:22.864Z,4.77
2022-12-23T17:13:51.001Z,5.40
2022-12-23T17:16:24.358Z,5.00
2022-12-23T17:18:54.000Z,3.73
2022-12-23T17:21:24.635Z,2.80
2022-12-23T17:23:54.477Z,3.20
2022-12-23T17:26:22.676Z,5.17
2022-12-23T17:28:50.548Z,4.80
2022-12-23T17:31:26.645Z,4.67
2022-12-23T17:33:55.314Z,4.97
2022-12-23T17:36:23.707Z,4.77
2022-12-23T17:38:51.658Z,4.13
2022-12-23T17:41:26.262Z,5.07
2022-12-23T17:43:54.379Z,5.17
2022-12-23T17:46:24.252Z,8.23
2022-12-23T17:48:52.291Z,8.67
2022-12-23T17:51:23.836Z,9.57
2022-12-23T17:53:57.696Z,6.33
2022-12-23T17:56:28.283Z,8.27
2022-12-23T17:58:56.269Z,9.07
2022-12-23T18:01:29.750Z,10.77
2022-12-23T18:03:59.727Z,8.60
2022-12-23T18:06:29.807Z,10.93
2022-12-23T18:08:58.077Z,11.07
2022-12-23T18:11:32.089Z,12.70
2022-12-23T18:14:00.571Z,11.40
2022-12-23T18:16:30.449Z,13.00
2022-12-23T18:18:58.480Z,12.70
2022-12-23T18:21:28.482Z,14.10
2022-12-23T18:23:58.839Z,15.03
2022-12-23T18:26:27.229Z,16.87
2022-12-23T18:28:55.188Z,10.57
2022-12-23T18:31:27.501Z,13.73
2022-12-23T18:33:57.102Z,12.43
2022-12-23T18:36:27.741Z,12.60
2022-12-23T18:38:57.031Z,15.90
2022-12-23T18:41:26.332Z,19.77
2022-12-23T18:43:54.647Z,15.63
2022-12-23T18:46:23.055Z,15.90
2022-12-23T18:48:51.610Z,15.83
2022-12-23T18:51:22.667Z,12.77
2022-12-23T18:53:50.941Z,15.97
2022-12-23T18:56:21.071Z,13.17
2022-12-23T18:58:50.355Z,14.03
2022-12-23T19:01:20.566Z,24.93
2022-12-23T19:03:48.829Z,17.30
2022-12-23T19:06:17.259Z,21.33
2022-12-23T19:08:46.971Z,15.63
2022-12-23T19:11:18.217Z,17.80
2022-12-23T19:13:46.279Z,18.57
2022-12-23T19:16:15.947Z,19.67
2022-12-23T19:18:44.438Z,19.10
2022-12-23T19:21:12.564Z,18.77
2022-12-23T19:23:41.423Z,22.50
2022-12-23T19:26:12.947Z,21.17
2022-12-23T19:28:42.565Z,19.70
2022-12-23T19:31:11.374Z,22.47
2022-12-23T19:33:39.507Z,15.67
2022-12-23T19:36:11.318Z,18.97
2022-12-23T19:38:39.726Z,24.03
2022-12-23T19:41:07.704Z,16.80
2022-12-23T19:43:37.943Z,18.03
2022-12-23T19:46:08.449Z,21.20
2022-12-23T19:48:37.217Z,19.20
2022-12-23T19:51:07.041Z,22.27
2022-12-23T19:53:35.246Z,21.97
2022-12-23T19:56:05.240Z,22.77
2022-12-23T19:58:34.476Z,21.80
2022-12-23T20:01:09.077Z,22.00
2022-12-23T20:03:37.699Z,23.80
2022-12-23T20:06:06.442Z,28.43
2022-12-23T20:08:35.058Z,23.57
2022-12-23T20:11:08.016Z,20.37
2022-12-23T20:13:36.434Z,14.43
2022-12-23T20:16:05.966Z,23.27
2022-12-23T20:18:36.000Z,18.27
2022-12-23T20:21:04.262Z,23.13
2022-12-23T20:23:33.098Z,17.77
2022-12-23T20:26:01.564Z,18.63
2022-12-23T20:28:29.717Z,19.10
2022-12-23T20:31:07.462Z,19.33
2022-12-23T20:33:37.679Z,21.47
2022-12-23T20:36:07.753Z,17.70
2022-12-23T20:38:36.018Z,16.90
2022-12-23T20:41:04.031Z,17.43
2022-12-23T20:43:34.255Z,18.40
2022-12-23T20:46:02.297Z,16.83
2022-12-23T20:48:33.979Z,25.00
2022-12-23T20:51:07.182Z,15.27
2022-12-23T20:53:35.705Z,23.40
2022-12-23T20:56:04.793Z,22.70
2022-12-23T20:58:50.487Z,19.40
2022-12-23T21:01:18.566Z,20.73
2022-12-23T21:03:46.517Z,19.30
2022-12-23T21:06:16.112Z,19.67
2022-12-23T21:08:44.167Z,26.13
2022-12-23T21:11:12.201Z,19.20
2022-12-23T21:13:40.552Z,24.30
2022-12-23T21:16:11.050Z,15.73
2022-12-23T21:18:41.719Z,24.07
2022-12-23T21:21:10.336Z,20.73
2022-12-23T21:23:41.377Z,23.43
2022-12-23T21:26:12.651Z,20.87
2022-12-23T21:28:42.006Z,21.43
2022-12-23T21:31:10.621Z,29.30
2022-12-23T21:33:39.995Z,24.83
2022-12-23T21:36:11.782Z,16.37
2022-12-23T21:38:46.213Z,20.97
2022-12-23T21:41:16.299Z,20.40
2022-12-23T21:43:44.317Z,20.63
2022-12-23T21:46:14.411Z,21.67
2022-12-23T21:48:42.805Z,18.80
2022-12-23T21:51:14.149Z,16.30
2022-12-23T21:53:44.978Z,20.10
2022-12-23T21:56:14.167Z,14.17
2022-12-23T21:58:42.608Z,18.40
2022-12-23T22:01:12.362Z,15.00
2022-12-23T22:03:40.662Z,15.63
2022-12-23T22:06:10.995Z,22.77
2022-12-23T22:08:39.410Z,23.90
2022-12-23T22:11:09.811Z,20.03
2022-12-23T22:13:38.358Z,18.23
2022-12-23T22:16:11.181Z,19.07
2022-12-23T22:18:40.095Z,18.90
2022-12-23T22:21:09.414Z,15.03
2022-12-23T22:23:37.611Z,17.13
2022-12-23T22:26:06.573Z,19.70
2022-12-23T22:28:37.618Z,17.20
2022-12-23T22:31:06.947Z,16.70
2022-12-23T22:33:35.656Z,17.57
2022-12-23T22:36:03.642Z,21.10
2022-12-23T22:38:32.345Z,15.30
2022-12-23T22:41:00.244Z,17.33
2022-12-23T22:43:28.282Z,19.73
2022-12-23T22:45:58.728Z,21.50
2022-12-23T22:48:28.818Z,22.07
2022-12-23T22:51:03.662Z,18.40
2022-12-23T22:53:31.971Z,21.43
2022-12-23T22:56:00.428Z,18.60
2022-12-23T22:58:29.432Z,16.73
2022-12-23T23:01:00.063Z,20.03
2022-12-23T23:03:28.737Z,19.77
2022-12-23T23:05:58.633Z,14.70
2022-12-23T23:08:26.961Z,18.33
2022-12-23T23:10:57.255Z,14.23
2022-12-23T23:13:26.316Z,14.73
2022-12-23T23:15:54.629Z,15.70
2022-12-23T23:18:25.334Z,15.77
2022-12-23T23:20:53.683Z,20.47
2022-12-23T23:23:22.334Z,21.97
2022-12-23T23:25:50.274Z,23.53
2022-12-23T23:28:18.626Z,28.80
2022-12-23T23:30:46.572Z,14.77
2022-12-23T23:33:14.703Z,16.97
2022-12-23T23:35:44.412Z,16.87
2022-12-23T23:38:13.141Z,23.17
2022-12-23T23:40:41.084Z,18.73
2022-12-23T23:43:09.284Z,20.00
2022-12-23T23:45:37.367Z,17.53
2022-12-23T23:48:05.871Z,27.43
2022-12-23T23:50:33.915Z,28.20
2022-12-23T23:53:03.255Z,22.80
2022-12-23T23:55:31.360Z,17.13
2022-12-23T23:57:59.326Z,25.80
